sensor_id;sensor_type;location;lat;lon;timestamp;pressure;altitude;pressure_sealevel;temperature
60936;BMP280;46804;51.786;19.520;2023-08-06T00:01:49;158890.75;;;18.28
60936;BMP280;46804;51.786;19.520;2023-08-06T00:05:49;158893.31;;;18.29
60936;BMP280;46804;51.786;19.520;2023-08-06T00:09:50;158903.66;;;18.33
60936;BMP280;46804;51.786;19.520;2023-08-06T00:13:50;158890.75;;;18.28
60936;BMP280;46804;51.786;19.520;2023-08-06T00:17:51;158890.75;;;18.28
60936;BMP280;46804;51.786;19.520;2023-08-06T00:21:51;158908.81;;;18.35
60936;BMP280;46804;51.786;19.520;2023-08-06T00:25:52;158890.75;;;18.28
60936;BMP280;46804;51.786;19.520;2023-08-06T00:29:53;158877.88;;;18.23
60936;BMP280;46804;51.786;19.520;2023-08-06T00:33:53;158893.31;;;18.29
60936;BMP280;46804;51.786;19.520;2023-08-06T00:37:54;158893.31;;;18.29
60936;BMP280;46804;51.786;19.520;2023-08-06T00:41:54;158899.78;;;18.31
60936;BMP280;46804;51.786;19.520;2023-08-06T00:45:55;158895.94;;;18.30
60936;BMP280;46804;51.786;19.520;2023-08-06T00:49:56;158895.94;;;18.30
60936;BMP280;46804;51.786;19.520;2023-08-06T00:53:57;158892.03;;;18.28
60936;BMP280;46804;51.786;19.520;2023-08-06T00:57:58;158904.94;;;18.33
60936;BMP280;46804;51.786;19.520;2023-08-06T01:01:59;158898.50;;;18.31
60936;BMP280;46804;51.786;19.520;2023-08-06T01:06:00;158925.59;;;18.41
60936;BMP280;46804;51.786;19.520;2023-08-06T01:10:19;158928.16;;;18.42
60936;BMP280;46804;51.786;19.520;2023-08-06T01:14:50;158904.94;;;18.33
60936;BMP280;46804;51.786;19.520;2023-08-06T01:18:54;158921.72;;;18.39
60936;BMP280;46804;51.786;19.520;2023-08-06T01:22:54;158917.88;;;18.38
60936;BMP280;46804;51.786;19.520;2023-08-06T01:27:03;158957.88;;;18.53
60936;BMP280;46804;51.786;19.520;2023-08-06T01:31:07;158952.72;;;18.51
60936;BMP280;46804;51.786;19.520;2023-08-06T01:35:09;158954.00;;;18.52
60936;BMP280;46804;51.786;19.520;2023-08-06T01:39:11;158955.28;;;18.52
60936;BMP280;46804;51.786;19.520;2023-08-06T01:43:12;158970.78;;;18.58
60936;BMP280;46804;51.786;19.520;2023-08-06T01:47:12;158930.78;;;18.43
60936;BMP280;46804;51.786;19.520;2023-08-06T01:51:13;158923.00;;;18.40
60936;BMP280;46804;51.786;19.520;2023-08-06T01:55:13;158907.53;;;18.34
60936;BMP280;46804;51.786;19.520;2023-08-06T01:59:14;158898.50;;;18.31
60936;BMP280;46804;51.786;19.520;2023-08-06T02:03:15;158920.44;;;18.39
60936;BMP280;46804;51.786;19.520;2023-08-06T02:07:16;158932.06;;;18.43
60936;BMP280;46804;51.786;19.520;2023-08-06T02:11:17;158955.28;;;18.52
60936;BMP280;46804;51.786;19.520;2023-08-06T02:15:18;158911.38;;;18.36
60936;BMP280;46804;51.786;19.520;2023-08-06T02:19:19;158864.94;;;18.18
60936;BMP280;46804;51.786;19.520;2023-08-06T02:23:20;158850.78;;;18.12
60936;BMP280;46804;51.786;19.520;2023-08-06T02:27:20;158832.72;;;18.05
60936;BMP280;46804;51.786;19.520;2023-08-06T02:31:21;158852.06;;;18.13
60936;BMP280;46804;51.786;19.520;2023-08-06T02:35:22;158875.28;;;18.22
60936;BMP280;46804;51.786;19.520;2023-08-06T02:39:22;158889.47;;;18.27
60936;BMP280;46804;51.786;19.520;2023-08-06T02:43:23;158885.59;;;18.26
60936;BMP280;46804;51.786;19.520;2023-08-06T02:47:24;158872.72;;;18.21
60936;BMP280;46804;51.786;19.520;2023-08-06T02:51:25;158857.22;;;18.15
60936;BMP280;46804;51.786;19.520;2023-08-06T02:55:25;158844.31;;;18.10
60936;BMP280;46804;51.786;19.520;2023-08-06T02:59:26;158835.28;;;18.06
60936;BMP280;46804;51.786;19.520;2023-08-06T03:03:27;158830.06;;;18.04
60936;BMP280;46804;51.786;19.520;2023-08-06T03:07:27;158855.94;;;18.14
60936;BMP280;46804;51.786;19.520;2023-08-06T03:11:28;158877.88;;;18.23
60936;BMP280;46804;51.786;19.520;2023-08-06T03:15:29;158904.94;;;18.33
60936;BMP280;46804;51.786;19.520;2023-08-06T03:19:29;158912.72;;;18.36
60936;BMP280;46804;51.786;19.520;2023-08-06T03:23:30;158935.94;;;18.45
60936;BMP280;46804;51.786;19.520;2023-08-06T03:27:31;158937.22;;;18.45
60936;BMP280;46804;51.786;19.520;2023-08-06T03:31:31;158933.31;;;18.44
60936;BMP280;46804;51.786;19.520;2023-08-06T03:35:32;158954.00;;;18.52
60936;BMP280;46804;51.786;19.520;2023-08-06T03:39:33;158950.09;;;18.50
60936;BMP280;46804;51.786;19.520;2023-08-06T03:43:33;158948.84;;;18.50
60936;BMP280;46804;51.786;19.520;2023-08-06T03:47:34;158937.22;;;18.45
60936;BMP280;46804;51.786;19.520;2023-08-06T03:51:35;158957.88;;;18.53
60936;BMP280;46804;51.786;19.520;2023-08-06T03:55:35;158965.59;;;18.56
60936;BMP280;46804;51.786;19.520;2023-08-06T03:59:36;158974.66;;;18.60
60936;BMP280;46804;51.786;19.520;2023-08-06T04:03:37;158977.22;;;18.61
60936;BMP280;46804;51.786;19.520;2023-08-06T04:07:37;159003.06;;;18.71
60936;BMP280;46804;51.786;19.520;2023-08-06T04:11:38;159000.47;;;18.70
60936;BMP280;46804;51.786;19.520;2023-08-06T04:15:38;159030.13;;;18.81
60936;BMP280;46804;51.786;19.520;2023-08-06T04:19:39;159027.56;;;18.80
60936;BMP280;46804;51.786;19.520;2023-08-06T04:23:39;159052.09;;;18.89
60936;BMP280;46804;51.786;19.520;2023-08-06T04:27:40;159043.06;;;18.86
60936;BMP280;46804;51.786;19.520;2023-08-06T04:31:42;159046.91;;;18.87
60936;BMP280;46804;51.786;19.520;2023-08-06T04:35:42;159071.53;;;18.97
60936;BMP280;46804;51.786;19.520;2023-08-06T04:39:43;159083.13;;;19.01
60936;BMP280;46804;51.786;19.520;2023-08-06T04:43:44;159049.53;;;18.88
60936;BMP280;46804;51.786;19.520;2023-08-06T04:47:44;159068.91;;;18.96
60936;BMP280;46804;51.786;19.520;2023-08-06T04:51:45;159074.09;;;18.98
60936;BMP280;46804;51.786;19.520;2023-08-06T04:55:46;159092.16;;;19.05
60936;BMP280;46804;51.786;19.520;2023-08-06T04:59:47;159096.03;;;19.06
60936;BMP280;46804;51.786;19.520;2023-08-06T05:03:48;159120.56;;;19.15
60936;BMP280;46804;51.786;19.520;2023-08-06T05:07:49;159105.03;;;19.09
60936;BMP280;46804;51.786;19.520;2023-08-06T05:11:50;159099.94;;;19.07
60936;BMP280;46804;51.786;19.520;2023-08-06T05:15:53;159115.38;;;19.13
60936;BMP280;46804;51.786;19.520;2023-08-06T05:19:53;159107.66;;;19.10
60936;BMP280;46804;51.786;19.520;2023-08-06T05:23:54;159123.16;;;19.16
60936;BMP280;46804;51.786;19.520;2023-08-06T05:27:55;159146.41;;;19.25
60936;BMP280;46804;51.786;19.520;2023-08-06T05:31:56;159085.69;;;19.02
60936;BMP280;46804;51.786;19.520;2023-08-06T05:35:56;159099.94;;;19.07
60936;BMP280;46804;51.786;19.520;2023-08-06T05:39:57;159097.31;;;19.06
60936;BMP280;46804;51.786;19.520;2023-08-06T05:43:58;159151.56;;;19.27
60936;BMP280;46804;51.786;19.520;2023-08-06T05:47:58;159169.63;;;19.34
60936;BMP280;46804;51.786;19.520;2023-08-06T05:51:59;159173.47;;;19.36
60936;BMP280;46804;51.786;19.520;2023-08-06T05:56:00;159164.47;;;19.32
60936;BMP280;46804;51.786;19.520;2023-08-06T06:00:01;159168.38;;;19.34
60936;BMP280;46804;51.786;19.520;2023-08-06T06:04:02;159164.47;;;19.32
60936;BMP280;46804;51.786;19.520;2023-08-06T06:08:03;159137.34;;;19.22
60936;BMP280;46804;51.786;19.520;2023-08-06T06:12:04;159155.41;;;19.29
60936;BMP280;46804;51.786;19.520;2023-08-06T06:16:05;159163.19;;;19.32
60936;BMP280;46804;51.786;19.520;2023-08-06T06:20:06;159169.63;;;19.34
60936;BMP280;46804;51.786;19.520;2023-08-06T06:24:07;159229.03;;;19.57
60936;BMP280;46804;51.786;19.520;2023-08-06T06:28:08;159257.44;;;19.68
60936;BMP280;46804;51.786;19.520;2023-08-06T06:32:09;159244.53;;;19.63
60936;BMP280;46804;51.786;19.520;2023-08-06T06:36:09;159205.78;;;19.48
60936;BMP280;46804;51.786;19.520;2023-08-06T06:40:10;159247.09;;;19.64
60936;BMP280;46804;51.786;19.520;2023-08-06T06:44:11;159185.09;;;19.40
60936;BMP280;46804;51.786;19.520;2023-08-06T06:48:12;159169.63;;;19.34
60936;BMP280;46804;51.786;19.520;2023-08-06T06:52:14;159187.72;;;19.41
60936;BMP280;46804;51.786;19.520;2023-08-06T06:56:15;159229.03;;;19.57
60936;BMP280;46804;51.786;19.520;2023-08-06T07:00:15;159270.34;;;19.73
60936;BMP280;46804;51.786;19.520;2023-08-06T07:04:16;159258.72;;;19.68
60936;BMP280;46804;51.786;19.520;2023-08-06T07:08:17;159247.09;;;19.64
60936;BMP280;46804;51.786;19.520;2023-08-06T07:12:18;159274.22;;;19.74
60936;BMP280;46804;51.786;19.520;2023-08-06T07:16:18;159236.81;;;19.60
60936;BMP280;46804;51.786;19.520;2023-08-06T07:20:19;159249.72;;;19.65
60936;BMP280;46804;51.786;19.520;2023-08-06T07:24:20;159284.63;;;19.78
60936;BMP280;46804;51.786;19.520;2023-08-06T07:28:20;159292.34;;;19.81
60936;BMP280;46804;51.786;19.520;2023-08-06T07:32:21;159276.84;;;19.75
60936;BMP280;46804;51.786;19.520;2023-08-06T07:36:21;159306.59;;;19.86
60936;BMP280;46804;51.786;19.520;2023-08-06T07:40:22;159306.59;;;19.86
60936;BMP280;46804;51.786;19.520;2023-08-06T07:44:23;159303.97;;;19.85
60936;BMP280;46804;51.786;19.520;2023-08-06T07:48:24;159285.91;;;19.78
60936;BMP280;46804;51.786;19.520;2023-08-06T07:52:25;159296.25;;;19.82
60936;BMP280;46804;51.786;19.520;2023-08-06T07:56:26;159320.78;;;19.92
60936;BMP280;46804;51.786;19.520;2023-08-06T08:00:26;159297.53;;;19.83
60936;BMP280;46804;51.786;19.520;2023-08-06T08:04:27;159324.66;;;19.93
60936;BMP280;46804;51.786;19.520;2023-08-06T08:08:27;159316.94;;;19.90
60936;BMP280;46804;51.786;19.520;2023-08-06T08:12:28;159229.03;;;19.57
60936;BMP280;46804;51.786;19.520;2023-08-06T08:16:29;159266.50;;;19.71
60936;BMP280;46804;51.786;19.520;2023-08-06T08:20:30;159265.22;;;19.71
60936;BMP280;46804;51.786;19.520;2023-08-06T08:24:33;159294.97;;;19.82
60936;BMP280;46804;51.786;19.520;2023-08-06T08:28:33;159232.91;;;19.58
60936;BMP280;46804;51.786;19.520;2023-08-06T08:32:34;159235.47;;;19.59
60936;BMP280;46804;51.786;19.520;2023-08-06T08:36:35;159213.50;;;19.51
60936;BMP280;46804;51.786;19.520;2023-08-06T08:40:43;159249.72;;;19.65
60936;BMP280;46804;51.786;19.520;2023-08-06T08:44:46;159291.09;;;19.80
60936;BMP280;46804;51.786;19.520;2023-08-06T08:48:46;159285.91;;;19.78
60936;BMP280;46804;51.786;19.520;2023-08-06T08:52:47;159376.34;;;20.13
60936;BMP280;46804;51.786;19.520;2023-08-06T08:56:49;159398.31;;;20.21
60936;BMP280;46804;51.786;19.520;2023-08-06T09:00:50;159404.75;;;20.24
60936;BMP280;46804;51.786;19.520;2023-08-06T09:04:52;159390.56;;;20.18
60936;BMP280;46804;51.786;19.520;2023-08-06T09:08:59;159448.72;;;20.41
60936;BMP280;46804;51.786;19.520;2023-08-06T09:13:01;159471.97;;;20.49
60936;BMP280;46804;51.786;19.520;2023-08-06T09:17:04;159475.81;;;20.51
60936;BMP280;46804;51.786;19.520;2023-08-06T09:21:13;159492.63;;;20.57
60936;BMP280;46804;51.786;19.520;2023-08-06T09:25:21;159492.63;;;20.57
60936;BMP280;46804;51.786;19.520;2023-08-06T09:29:24;159468.06;;;20.48
60936;BMP280;46804;51.786;19.520;2023-08-06T09:33:24;159462.91;;;20.46
60936;BMP280;46804;51.786;19.520;2023-08-06T09:37:25;159492.63;;;20.57
60936;BMP280;46804;51.786;19.520;2023-08-06T09:41:35;159548.25;;;20.78
60936;BMP280;46804;51.786;19.520;2023-08-06T09:45:37;159517.25;;;20.67
60936;BMP280;46804;51.786;19.520;2023-08-06T09:49:43;159479.69;;;20.52
60936;BMP280;46804;51.786;19.520;2023-08-06T09:53:47;159474.53;;;20.50
60936;BMP280;46804;51.786;19.520;2023-08-06T09:57:49;159518.53;;;20.67
60936;BMP280;46804;51.786;19.520;2023-08-06T10:01:51;159548.25;;;20.78
60936;BMP280;46804;51.786;19.520;2023-08-06T10:05:51;159506.91;;;20.63
60936;BMP280;46804;51.786;19.520;2023-08-06T10:09:52;159514.63;;;20.66
60936;BMP280;46804;51.786;19.520;2023-08-06T10:13:57;159556.03;;;20.81
60936;BMP280;46804;51.786;19.520;2023-08-06T10:17:59;159627.13;;;21.09
60936;BMP280;46804;51.786;19.520;2023-08-06T10:22:14;159612.88;;;21.03
60936;BMP280;46804;51.786;19.520;2023-08-06T10:26:16;159596.09;;;20.97
60936;BMP280;46804;51.786;19.520;2023-08-06T10:30:28;159579.31;;;20.90
60936;BMP280;46804;51.786;19.520;2023-08-06T10:34:58;159526.28;;;20.70
60936;BMP280;46804;51.786;19.520;2023-08-06T10:38:59;159510.78;;;20.64
60936;BMP280;46804;51.786;19.520;2023-08-06T10:43:04;159566.34;;;20.85
60936;BMP280;46804;51.786;19.520;2023-08-06T10:47:26;159612.88;;;21.03
60936;BMP280;46804;51.786;19.520;2023-08-06T10:51:26;159642.63;;;21.14
60936;BMP280;46804;51.786;19.520;2023-08-06T10:55:28;159709.88;;;21.40
60936;BMP280;46804;51.786;19.520;2023-08-06T10:59:29;159777.13;;;21.66
60936;BMP280;46804;51.786;19.520;2023-08-06T11:03:32;159911.72;;;22.17
60936;BMP280;46804;51.786;19.520;2023-08-06T11:07:36;159957.00;;;22.34
60936;BMP280;46804;51.786;19.520;2023-08-06T11:11:37;159985.47;;;22.45
60936;BMP280;46804;51.786;19.520;2023-08-06T11:15:38;160092.94;;;22.86
60936;BMP280;46804;51.786;19.520;2023-08-06T11:19:40;160487.97;;;24.36
60936;BMP280;46804;51.786;19.520;2023-08-06T11:23:41;160914.44;;;25.98
60936;BMP280;46804;51.786;19.520;2023-08-06T11:27:42;160959.81;;;26.16
60936;BMP280;46804;51.786;19.520;2023-08-06T11:31:42;161057.13;;;26.53
60936;BMP280;46804;51.786;19.520;2023-08-06T11:35:43;160867.75;;;25.81
60936;BMP280;46804;51.786;19.520;2023-08-06T11:39:47;160568.28;;;24.67
60936;BMP280;46804;51.786;19.520;2023-08-06T11:43:51;160574.75;;;24.69
60936;BMP280;46804;51.786;19.520;2023-08-06T11:47:52;160482.78;;;24.34
60936;BMP280;46804;51.786;19.520;2023-08-06T11:51:53;160344.09;;;23.82
60936;BMP280;46804;51.786;19.520;2023-08-06T11:55:54;160311.75;;;23.69
60936;BMP280;46804;51.786;19.520;2023-08-06T11:59:54;160129.16;;;23.00
60936;BMP280;46804;51.786;19.520;2023-08-06T12:03:59;160041.06;;;22.66
60936;BMP280;46804;51.786;19.520;2023-08-06T12:08:01;159907.81;;;22.15
60936;BMP280;46804;51.786;19.520;2023-08-06T12:12:02;159832.75;;;21.87
60936;BMP280;46804;51.786;19.520;2023-08-06T12:16:04;159614.19;;;21.04
60936;BMP280;46804;51.786;19.520;2023-08-06T12:20:05;159597.38;;;20.97
60936;BMP280;46804;51.786;19.520;2023-08-06T12:24:06;159650.38;;;21.17
60936;BMP280;46804;51.786;19.520;2023-08-06T12:28:08;159381.50;;;20.15
60936;BMP280;46804;51.786;19.520;2023-08-06T12:32:11;159394.41;;;20.20
60936;BMP280;46804;51.786;19.520;2023-08-06T12:36:11;159353.09;;;20.04
60936;BMP280;46804;51.786;19.520;2023-08-06T12:40:12;159120.56;;;19.15
60936;BMP280;46804;51.786;19.520;2023-08-06T12:44:12;159156.69;;;19.29
60936;BMP280;46804;51.786;19.520;2023-08-06T12:48:13;158959.16;;;18.54
60936;BMP280;46804;51.786;19.520;2023-08-06T12:52:14;159014.69;;;18.75
60936;BMP280;46804;51.786;19.520;2023-08-06T12:56:15;159099.94;;;19.07
60936;BMP280;46804;51.786;19.520;2023-08-06T13:00:16;159118.00;;;19.14
60936;BMP280;46804;51.786;19.520;2023-08-06T13:04:16;159083.13;;;19.01
60936;BMP280;46804;51.786;19.520;2023-08-06T13:08:17;159442.25;;;20.38
60936;BMP280;46804;51.786;19.520;2023-08-06T13:12:18;159351.81;;;20.04
60936;BMP280;46804;51.786;19.520;2023-08-06T13:16:20;159435.75;;;20.36
60936;BMP280;46804;51.786;19.520;2023-08-06T13:20:21;159301.41;;;19.84
60936;BMP280;46804;51.786;19.520;2023-08-06T13:24:23;159217.41;;;19.52
60936;BMP280;46804;51.786;19.520;2023-08-06T13:28:23;159143.78;;;19.24
60936;BMP280;46804;51.786;19.520;2023-08-06T13:32:24;159083.13;;;19.01
60936;BMP280;46804;51.786;19.520;2023-08-06T13:36:28;159154.13;;;19.28
60936;BMP280;46804;51.786;19.520;2023-08-06T13:40:32;159116.66;;;19.14
60936;BMP280;46804;51.786;19.520;2023-08-06T13:44:33;159085.69;;;19.02
60936;BMP280;46804;51.786;19.520;2023-08-06T13:48:36;159045.63;;;18.87
60936;BMP280;46804;51.786;19.520;2023-08-06T13:52:37;159015.94;;;18.75
60936;BMP280;46804;51.786;19.520;2023-08-06T13:56:37;158886.88;;;18.26
60936;BMP280;46804;51.786;19.520;2023-08-06T14:00:38;158854.59;;;18.14
60936;BMP280;46804;51.786;19.520;2023-08-06T14:04:39;158773.28;;;17.83
60936;BMP280;46804;51.786;19.520;2023-08-06T14:08:40;158819.72;;;18.01
60936;BMP280;46804;51.786;19.520;2023-08-06T14:12:41;158837.88;;;18.07
60936;BMP280;46804;51.786;19.520;2023-08-06T14:16:42;158870.09;;;18.20
60936;BMP280;46804;51.786;19.520;2023-08-06T14:20:43;158840.44;;;18.08
60936;BMP280;46804;51.786;19.520;2023-08-06T14:24:43;158859.78;;;18.16
60936;BMP280;46804;51.786;19.520;2023-08-06T14:28:44;158730.75;;;17.67
60936;BMP280;46804;51.786;19.520;2023-08-06T14:32:45;158747.53;;;17.73
60936;BMP280;46804;51.786;19.520;2023-08-06T14:36:46;158650.78;;;17.36
60936;BMP280;46804;51.786;19.520;2023-08-06T14:40:46;158623.69;;;17.26
60936;BMP280;46804;51.786;19.520;2023-08-06T14:44:47;158641.75;;;17.33
60936;BMP280;46804;51.786;19.520;2023-08-06T14:48:47;158621.09;;;17.25
60936;BMP280;46804;51.786;19.520;2023-08-06T14:52:48;158613.38;;;17.22
60936;BMP280;46804;51.786;19.520;2023-08-06T14:56:49;158601.78;;;17.17
60936;BMP280;46804;51.786;19.520;2023-08-06T15:00:49;158606.94;;;17.19
60936;BMP280;46804;51.786;19.520;2023-08-06T15:04:50;158599.22;;;17.16
60936;BMP280;46804;51.786;19.520;2023-08-06T15:08:51;158588.84;;;17.12
60936;BMP280;46804;51.786;19.520;2023-08-06T15:12:51;158552.72;;;16.98
60936;BMP280;46804;51.786;19.520;2023-08-06T15:16:52;158568.19;;;17.04
60936;BMP280;46804;51.786;19.520;2023-08-06T15:20:53;158545.00;;;16.96
60936;BMP280;46804;51.786;19.520;2023-08-06T15:24:54;158465.06;;;16.65
60936;BMP280;46804;51.786;19.520;2023-08-06T15:28:54;158476.66;;;16.69
60936;BMP280;46804;51.786;19.520;2023-08-06T15:32:57;158450.91;;;16.60
60936;BMP280;46804;51.786;19.520;2023-08-06T15:36:58;158421.22;;;16.48
60936;BMP280;46804;51.786;19.520;2023-08-06T15:40:58;158395.47;;;16.38
60936;BMP280;46804;51.786;19.520;2023-08-06T15:44:59;158391.59;;;16.37
60936;BMP280;46804;51.786;19.520;2023-08-06T15:49:00;158345.22;;;16.19
60936;BMP280;46804;51.786;19.520;2023-08-06T15:53:01;158386.44;;;16.35
60936;BMP280;46804;51.786;19.520;2023-08-06T15:57:02;158487.00;;;16.73
60936;BMP280;46804;51.786;19.520;2023-08-06T16:01:02;158516.63;;;16.85
60936;BMP280;46804;51.786;19.520;2023-08-06T16:05:03;158555.31;;;16.99
60936;BMP280;46804;51.786;19.520;2023-08-06T16:09:04;158454.75;;;16.61
60936;BMP280;46804;51.786;19.520;2023-08-06T16:13:05;158449.59;;;16.59
60936;BMP280;46804;51.786;19.520;2023-08-06T16:17:06;158479.28;;;16.70
60936;BMP280;46804;51.786;19.520;2023-08-06T16:21:06;158435.44;;;16.54
60936;BMP280;46804;51.786;19.520;2023-08-06T16:25:08;158383.88;;;16.34
60936;BMP280;46804;51.786;19.520;2023-08-06T16:29:12;158340.06;;;16.17
60936;BMP280;46804;51.786;19.520;2023-08-06T16:33:13;158341.34;;;16.18
60936;BMP280;46804;51.786;19.520;2023-08-06T16:37:13;158361.97;;;16.26
60936;BMP280;46804;51.786;19.520;2023-08-06T16:41:14;158390.31;;;16.36
60936;BMP280;46804;51.786;19.520;2023-08-06T16:45:15;158399.34;;;16.40
60936;BMP280;46804;51.786;19.520;2023-08-06T16:49:16;158377.44;;;16.32
60936;BMP280;46804;51.786;19.520;2023-08-06T16:53:16;158367.13;;;16.28
60936;BMP280;46804;51.786;19.520;2023-08-06T16:57:17;158301.34;;;16.02
60936;BMP280;46804;51.786;19.520;2023-08-06T17:01:17;158321.97;;;16.10
60936;BMP280;46804;51.786;19.520;2023-08-06T17:05:18;158294.91;;;16.00
60936;BMP280;46804;51.786;19.520;2023-08-06T17:09:19;158282.03;;;15.95
60936;BMP280;46804;51.786;19.520;2023-08-06T17:13:19;158284.59;;;15.96
60936;BMP280;46804;51.786;19.520;2023-08-06T17:17:20;158260.13;;;15.87
60936;BMP280;46804;51.786;19.520;2023-08-06T17:21:21;158247.25;;;15.82
60936;BMP280;46804;51.786;19.520;2023-08-06T17:25:21;158211.16;;;15.68
60936;BMP280;46804;51.786;19.520;2023-08-06T17:29:23;158197.00;;;15.63
60936;BMP280;46804;51.786;19.520;2023-08-06T17:33:24;158206.06;;;15.66
60936;BMP280;46804;51.786;19.520;2023-08-06T17:37:24;158189.31;;;15.60
60936;BMP280;46804;51.786;19.520;2023-08-06T17:41:25;158146.78;;;15.43
60936;BMP280;46804;51.786;19.520;2023-08-06T17:45:27;158136.47;;;15.39
60936;BMP280;46804;51.786;19.520;2023-08-06T17:49:27;158140.34;;;15.41
60936;BMP280;46804;51.786;19.520;2023-08-06T17:53:28;158132.63;;;15.38
60936;BMP280;46804;51.786;19.520;2023-08-06T17:57:29;158145.50;;;15.43
60936;BMP280;46804;51.786;19.520;2023-08-06T18:01:29;158146.78;;;15.43
60936;BMP280;46804;51.786;19.520;2023-08-06T18:05:30;158163.53;;;15.50
60936;BMP280;46804;51.786;19.520;2023-08-06T18:09:33;158127.47;;;15.36
60936;BMP280;46804;51.786;19.520;2023-08-06T18:13:34;158090.13;;;15.22
60936;BMP280;46804;51.786;19.520;2023-08-06T18:17:35;158105.56;;;15.28
60936;BMP280;46804;51.786;19.520;2023-08-06T18:21:36;158073.38;;;15.15
60936;BMP280;46804;51.786;19.520;2023-08-06T18:25:36;158034.69;;;15.00
60936;BMP280;46804;51.786;19.520;2023-08-06T18:29:37;158026.97;;;14.97
60936;BMP280;46804;51.786;19.520;2023-08-06T18:33:38;158063.06;;;15.11
60936;BMP280;46804;51.786;19.520;2023-08-06T18:37:39;158046.28;;;15.05
60936;BMP280;46804;51.786;19.520;2023-08-06T18:41:40;158042.44;;;15.03
60936;BMP280;46804;51.786;19.520;2023-08-06T18:45:41;158054.03;;;15.08
60936;BMP280;46804;51.786;19.520;2023-08-06T18:49:42;158057.84;;;15.09
60936;BMP280;46804;51.786;19.520;2023-08-06T18:53:43;158025.69;;;14.97
60936;BMP280;46804;51.786;19.520;2023-08-06T18:57:43;157999.94;;;14.87
60936;BMP280;46804;51.786;19.520;2023-08-06T19:01:44;157972.94;;;14.77
60936;BMP280;46804;51.786;19.520;2023-08-06T19:05:44;157965.19;;;14.74
60936;BMP280;46804;51.786;19.520;2023-08-06T19:09:45;157978.03;;;14.79
60936;BMP280;46804;51.786;19.520;2023-08-06T19:13:46;157952.31;;;14.69
60936;BMP280;46804;51.786;19.520;2023-08-06T19:17:47;157945.88;;;14.66
60936;BMP280;46804;51.786;19.520;2023-08-06T19:21:47;157920.13;;;14.57
60936;BMP280;46804;51.786;19.520;2023-08-06T19:25:48;157922.72;;;14.58
60936;BMP280;46804;51.786;19.520;2023-08-06T19:29:49;157911.16;;;14.53
60936;BMP280;46804;51.786;19.520;2023-08-06T19:33:49;157869.94;;;14.37
60936;BMP280;46804;51.786;19.520;2023-08-06T19:37:50;157881.50;;;14.42
60936;BMP280;46804;51.786;19.520;2023-08-06T19:41:51;157877.69;;;14.40
60936;BMP280;46804;51.786;19.520;2023-08-06T19:45:51;157878.97;;;14.41
60936;BMP280;46804;51.786;19.520;2023-08-06T19:49:52;157846.75;;;14.28
60936;BMP280;46804;51.786;19.520;2023-08-06T19:53:53;157846.75;;;14.28
60936;BMP280;46804;51.786;19.520;2023-08-06T19:57:53;157844.22;;;14.27
60936;BMP280;46804;51.786;19.520;2023-08-06T20:01:54;157841.63;;;14.26
60936;BMP280;46804;51.786;19.520;2023-08-06T20:05:55;157832.63;;;14.23
60936;BMP280;46804;51.786;19.520;2023-08-06T20:09:56;157803.06;;;14.12
60936;BMP280;46804;51.786;19.520;2023-08-06T20:13:57;157795.31;;;14.09
60936;BMP280;46804;51.786;19.520;2023-08-06T20:17:57;157797.91;;;14.10
60936;BMP280;46804;51.786;19.520;2023-08-06T20:21:58;157782.44;;;14.04
60936;BMP280;46804;51.786;19.520;2023-08-06T20:25:58;157790.16;;;14.07
60936;BMP280;46804;51.786;19.520;2023-08-06T20:29:59;157796.56;;;14.09
60936;BMP280;46804;51.786;19.520;2023-08-06T20:34:00;157778.56;;;14.02
60936;BMP280;46804;51.786;19.520;2023-08-06T20:38:00;157797.91;;;14.10
60936;BMP280;46804;51.786;19.520;2023-08-06T20:42:01;157797.91;;;14.10
60936;BMP280;46804;51.786;19.520;2023-08-06T20:46:02;157792.75;;;14.08
60936;BMP280;46804;51.786;19.520;2023-08-06T20:50:05;157778.56;;;14.02
60936;BMP280;46804;51.786;19.520;2023-08-06T20:54:05;157772.16;;;14.00
60936;BMP280;46804;51.786;19.520;2023-08-06T20:58:06;157773.41;;;14.00
60936;BMP280;46804;51.786;19.520;2023-08-06T21:02:08;157757.97;;;13.94
60936;BMP280;46804;51.786;19.520;2023-08-06T21:06:09;157748.94;;;13.91
60936;BMP280;46804;51.786;19.520;2023-08-06T21:10:09;157759.25;;;13.95
60936;BMP280;46804;51.786;19.520;2023-08-06T21:14:10;157751.53;;;13.92
60936;BMP280;46804;51.786;19.520;2023-08-06T21:18:11;157747.66;;;13.91
60936;BMP280;46804;51.786;19.520;2023-08-06T21:22:11;157728.34;;;13.83
60936;BMP280;46804;51.786;19.520;2023-08-06T21:26:12;157728.34;;;13.83
60936;BMP280;46804;51.786;19.520;2023-08-06T21:30:12;157710.34;;;13.76
60936;BMP280;46804;51.786;19.520;2023-08-06T21:34:13;157716.75;;;13.79
60936;BMP280;46804;51.786;19.520;2023-08-06T21:38:14;157718.09;;;13.79
60936;BMP280;46804;51.786;19.520;2023-08-06T21:42:14;157710.34;;;13.76
60936;BMP280;46804;51.786;19.520;2023-08-06T21:46:16;157723.25;;;13.81
60936;BMP280;46804;51.786;19.520;2023-08-06T21:50:17;157724.53;;;13.82
60936;BMP280;46804;51.786;19.520;2023-08-06T21:54:17;157712.94;;;13.77
60936;BMP280;46804;51.786;19.520;2023-08-06T21:58:18;157733.50;;;13.85
60936;BMP280;46804;51.786;19.520;2023-08-06T22:02:19;157733.50;;;13.85
60936;BMP280;46804;51.786;19.520;2023-08-06T22:06:19;157725.78;;;13.82
60936;BMP280;46804;51.786;19.520;2023-08-06T22:10:20;157741.25;;;13.88
60936;BMP280;46804;51.786;19.520;2023-08-06T22:14:20;157718.09;;;13.79
60936;BMP280;46804;51.786;19.520;2023-08-06T22:18:21;157730.94;;;13.84
60936;BMP280;46804;51.786;19.520;2023-08-06T22:22:22;157725.78;;;13.82
60936;BMP280;46804;51.786;19.520;2023-08-06T22:26:22;157719.38;;;13.80
60936;BMP280;46804;51.786;19.520;2023-08-06T22:30:24;157724.53;;;13.82